sensor_id;sensor_type;location;lat;lon;timestamp;P1;durP1;ratioP1;P2;durP2;ratioP2
58621;SDS011;44389;51.578;5.456;2022-07-24T00:00:15;34.15;;;26.13;;
58621;SDS011;44389;51.578;5.456;2022-07-24T00:02:41;35.65;;;26.40;;
58621;SDS011;44389;51.578;5.456;2022-07-24T00:05:06;35.92;;;26.17;;
58621;SDS011;44389;51.578;5.456;2022-07-24T00:07:32;36.80;;;27.35;;
58621;SDS011;44389;51.578;5.456;2022-07-24T00:09:59;34.72;;;27.70;;
58621;SDS011;44389;51.578;5.456;2022-07-24T00:12:25;38.72;;;27.10;;
58621;SDS011;44389;51.578;5.456;2022-07-24T00:14:50;35.13;;;26.65;;
58621;SDS011;44389;51.578;5.456;2022-07-24T00:17:16;36.13;;;27.13;;
58621;SDS011;44389;51.578;5.456;2022-07-24T00:19:41;36.00;;;26.92;;
58621;SDS011;44389;51.578;5.456;2022-07-24T00:22:06;34.08;;;25.95;;
58621;SDS011;44389;51.578;5.456;2022-07-24T00:24:32;34.47;;;26.65;;
58621;SDS011;44389;51.578;5.456;2022-07-24T00:26:57;36.00;;;25.85;;
58621;SDS011;44389;51.578;5.456;2022-07-24T00:29:22;36.60;;;25.95;;
58621;SDS011;44389;51.578;5.456;2022-07-24T00:31:47;36.92;;;25.98;;
58621;SDS011;44389;51.578;5.456;2022-07-24T00:34:13;36.75;;;25.42;;
58621;SDS011;44389;51.578;5.456;2022-07-24T00:36:38;33.00;;;23.88;;
58621;SDS011;44389;51.578;5.456;2022-07-24T00:39:06;38.22;;;26.10;;
58621;SDS011;44389;51.578;5.456;2022-07-24T00:41:32;33.75;;;24.92;;
58621;SDS011;44389;51.578;5.456;2022-07-24T00:43:58;36.15;;;24.80;;
58621;SDS011;44389;51.578;5.456;2022-07-24T00:46:35;34.05;;;24.50;;
58621;SDS011;44389;51.578;5.456;2022-07-24T00:49:06;34.33;;;25.60;;
58621;SDS011;44389;51.578;5.456;2022-07-24T00:51:34;33.22;;;25.00;;
58621;SDS011;44389;51.578;5.456;2022-07-24T00:54:02;35.25;;;25.88;;
58621;SDS011;44389;51.578;5.456;2022-07-24T00:56:28;38.00;;;27.58;;
58621;SDS011;44389;51.578;5.456;2022-07-24T00:58:54;31.98;;;24.85;;
58621;SDS011;44389;51.578;5.456;2022-07-24T01:01:19;34.42;;;25.23;;
58621;SDS011;44389;51.578;5.456;2022-07-24T01:03:44;33.53;;;24.98;;
58621;SDS011;44389;51.578;5.456;2022-07-24T01:06:10;34.65;;;26.40;;
58621;SDS011;44389;51.578;5.456;2022-07-24T01:08:35;33.83;;;25.13;;
58621;SDS011;44389;51.578;5.456;2022-07-24T01:11:02;36.42;;;26.40;;
58621;SDS011;44389;51.578;5.456;2022-07-24T01:13:29;34.70;;;24.23;;
58621;SDS011;44389;51.578;5.456;2022-07-24T01:15:55;36.15;;;24.75;;
58621;SDS011;44389;51.578;5.456;2022-07-24T01:18:21;38.03;;;25.55;;
58621;SDS011;44389;51.578;5.456;2022-07-24T01:20:47;38.67;;;25.33;;
58621;SDS011;44389;51.578;5.456;2022-07-24T01:23:13;35.17;;;25.10;;
58621;SDS011;44389;51.578;5.456;2022-07-24T01:25:38;32.80;;;25.25;;
58621;SDS011;44389;51.578;5.456;2022-07-24T01:28:04;33.83;;;24.60;;
58621;SDS011;44389;51.578;5.456;2022-07-24T01:30:29;36.15;;;25.20;;
58621;SDS011;44389;51.578;5.456;2022-07-24T01:32:55;34.13;;;25.00;;
58621;SDS011;44389;51.578;5.456;2022-07-24T01:35:20;33.17;;;24.48;;
58621;SDS011;44389;51.578;5.456;2022-07-24T01:37:45;36.70;;;25.48;;
58621;SDS011;44389;51.578;5.456;2022-07-24T01:40:11;33.60;;;25.48;;
58621;SDS011;44389;51.578;5.456;2022-07-24T01:42:36;33.20;;;24.88;;
58621;SDS011;44389;51.578;5.456;2022-07-24T01:45:02;33.97;;;25.75;;
58621;SDS011;44389;51.578;5.456;2022-07-24T01:47:27;35.97;;;25.00;;
58621;SDS011;44389;51.578;5.456;2022-07-24T01:49:52;37.17;;;26.90;;
58621;SDS011;44389;51.578;5.456;2022-07-24T01:52:18;36.60;;;25.63;;
58621;SDS011;44389;51.578;5.456;2022-07-24T01:54:43;36.58;;;27.05;;
58621;SDS011;44389;51.578;5.456;2022-07-24T01:57:08;37.55;;;27.02;;
58621;SDS011;44389;51.578;5.456;2022-07-24T01:59:34;38.20;;;25.92;;
58621;SDS011;44389;51.578;5.456;2022-07-24T02:01:59;35.75;;;25.70;;
58621;SDS011;44389;51.578;5.456;2022-07-24T02:04:24;38.80;;;26.40;;
58621;SDS011;44389;51.578;5.456;2022-07-24T02:06:50;35.28;;;25.67;;
58621;SDS011;44389;51.578;5.456;2022-07-24T02:09:15;32.63;;;24.73;;
58621;SDS011;44389;51.578;5.456;2022-07-24T02:11:40;35.08;;;25.20;;
58621;SDS011;44389;51.578;5.456;2022-07-24T02:14:05;39.20;;;26.17;;
58621;SDS011;44389;51.578;5.456;2022-07-24T02:16:31;33.70;;;25.13;;
58621;SDS011;44389;51.578;5.456;2022-07-24T02:18:56;34.55;;;25.70;;
58621;SDS011;44389;51.578;5.456;2022-07-24T02:21:22;36.63;;;26.85;;
58621;SDS011;44389;51.578;5.456;2022-07-24T02:23:47;34.38;;;26.15;;
58621;SDS011;44389;51.578;5.456;2022-07-24T02:26:12;35.28;;;25.77;;
58621;SDS011;44389;51.578;5.456;2022-07-24T02:28:38;37.35;;;27.08;;
58621;SDS011;44389;51.578;5.456;2022-07-24T02:31:03;35.63;;;25.05;;
58621;SDS011;44389;51.578;5.456;2022-07-24T02:33:28;32.63;;;24.35;;
58621;SDS011;44389;51.578;5.456;2022-07-24T02:35:54;33.17;;;24.05;;
58621;SDS011;44389;51.578;5.456;2022-07-24T02:38:19;36.42;;;25.80;;
58621;SDS011;44389;51.578;5.456;2022-07-24T02:40:45;38.20;;;25.02;;
58621;SDS011;44389;51.578;5.456;2022-07-24T02:43:10;31.90;;;25.10;;
58621;SDS011;44389;51.578;5.456;2022-07-24T02:45:36;36.22;;;25.65;;
58621;SDS011;44389;51.578;5.456;2022-07-24T02:48:01;33.17;;;25.52;;
58621;SDS011;44389;51.578;5.456;2022-07-24T02:50:29;35.70;;;26.48;;
58621;SDS011;44389;51.578;5.456;2022-07-24T02:52:55;41.55;;;27.38;;
58621;SDS011;44389;51.578;5.456;2022-07-24T02:55:21;37.60;;;26.25;;
58621;SDS011;44389;51.578;5.456;2022-07-24T02:57:46;34.55;;;24.92;;
58621;SDS011;44389;51.578;5.456;2022-07-24T03:00:12;36.33;;;25.80;;
58621;SDS011;44389;51.578;5.456;2022-07-24T03:02:40;36.28;;;24.73;;
58621;SDS011;44389;51.578;5.456;2022-07-24T03:05:05;34.42;;;25.85;;
58621;SDS011;44389;51.578;5.456;2022-07-24T03:07:31;32.13;;;24.92;;
58621;SDS011;44389;51.578;5.456;2022-07-24T03:09:57;41.33;;;28.08;;
58621;SDS011;44389;51.578;5.456;2022-07-24T03:12:22;41.70;;;29.08;;
58621;SDS011;44389;51.578;5.456;2022-07-24T03:14:48;37.67;;;26.88;;
58621;SDS011;44389;51.578;5.456;2022-07-24T03:17:13;40.13;;;28.50;;
58621;SDS011;44389;51.578;5.456;2022-07-24T03:19:38;35.92;;;25.88;;
58621;SDS011;44389;51.578;5.456;2022-07-24T03:22:03;39.97;;;29.75;;
58621;SDS011;44389;51.578;5.456;2022-07-24T03:24:29;34.78;;;25.73;;
58621;SDS011;44389;51.578;5.456;2022-07-24T03:26:54;32.95;;;25.42;;
58621;SDS011;44389;51.578;5.456;2022-07-24T03:29:20;37.42;;;25.90;;
58621;SDS011;44389;51.578;5.456;2022-07-24T03:31:45;38.83;;;29.23;;
58621;SDS011;44389;51.578;5.456;2022-07-24T03:34:11;35.72;;;27.73;;
58621;SDS011;44389;51.578;5.456;2022-07-24T03:36:36;32.53;;;24.88;;
58621;SDS011;44389;51.578;5.456;2022-07-24T03:39:02;35.58;;;26.27;;
58621;SDS011;44389;51.578;5.456;2022-07-24T03:41:27;34.75;;;26.88;;
58621;SDS011;44389;51.578;5.456;2022-07-24T03:43:52;38.47;;;28.65;;
58621;SDS011;44389;51.578;5.456;2022-07-24T03:46:17;46.65;;;31.70;;
58621;SDS011;44389;51.578;5.456;2022-07-24T03:48:43;37.22;;;27.65;;
58621;SDS011;44389;51.578;5.456;2022-07-24T03:51:08;37.78;;;27.60;;
58621;SDS011;44389;51.578;5.456;2022-07-24T03:53:33;43.95;;;29.83;;
58621;SDS011;44389;51.578;5.456;2022-07-24T03:55:59;53.95;;;37.75;;
58621;SDS011;44389;51.578;5.456;2022-07-24T03:58:24;48.00;;;36.00;;
58621;SDS011;44389;51.578;5.456;2022-07-24T04:00:49;44.60;;;33.60;;
58621;SDS011;44389;51.578;5.456;2022-07-24T04:03:14;45.80;;;32.70;;
58621;SDS011;44389;51.578;5.456;2022-07-24T04:05:40;53.13;;;38.35;;
58621;SDS011;44389;51.578;5.456;2022-07-24T04:08:05;48.25;;;35.05;;
58621;SDS011;44389;51.578;5.456;2022-07-24T04:10:30;56.53;;;40.25;;
58621;SDS011;44389;51.578;5.456;2022-07-24T04:12:56;62.03;;;42.92;;
58621;SDS011;44389;51.578;5.456;2022-07-24T04:15:21;70.18;;;47.13;;
58621;SDS011;44389;51.578;5.456;2022-07-24T04:17:46;68.78;;;46.67;;
58621;SDS011;44389;51.578;5.456;2022-07-24T04:20:12;70.80;;;47.55;;
58621;SDS011;44389;51.578;5.456;2022-07-24T04:22:37;73.88;;;46.92;;
58621;SDS011;44389;51.578;5.456;2022-07-24T04:25:03;69.80;;;46.53;;
58621;SDS011;44389;51.578;5.456;2022-07-24T04:27:28;71.10;;;45.92;;
58621;SDS011;44389;51.578;5.456;2022-07-24T04:29:54;70.88;;;45.22;;
58621;SDS011;44389;51.578;5.456;2022-07-24T04:32:19;72.05;;;45.30;;
58621;SDS011;44389;51.578;5.456;2022-07-24T04:34:44;70.65;;;45.38;;
58621;SDS011;44389;51.578;5.456;2022-07-24T04:37:10;60.78;;;43.65;;
58621;SDS011;44389;51.578;5.456;2022-07-24T04:39:35;64.15;;;45.60;;
58621;SDS011;44389;51.578;5.456;2022-07-24T04:42:00;63.90;;;46.22;;
58621;SDS011;44389;51.578;5.456;2022-07-24T04:44:26;74.97;;;48.05;;
58621;SDS011;44389;51.578;5.456;2022-07-24T04:46:51;68.88;;;46.45;;
58621;SDS011;44389;51.578;5.456;2022-07-24T04:49:16;67.57;;;46.42;;
58621;SDS011;44389;51.578;5.456;2022-07-24T04:51:41;74.22;;;48.65;;
58621;SDS011;44389;51.578;5.456;2022-07-24T04:54:07;73.03;;;47.40;;
58621;SDS011;44389;51.578;5.456;2022-07-24T04:56:32;72.85;;;48.67;;
58621;SDS011;44389;51.578;5.456;2022-07-24T04:58:58;77.60;;;49.17;;
58621;SDS011;44389;51.578;5.456;2022-07-24T05:01:24;74.80;;;47.83;;
58621;SDS011;44389;51.578;5.456;2022-07-24T05:03:49;74.78;;;49.47;;
58621;SDS011;44389;51.578;5.456;2022-07-24T05:06:14;71.25;;;49.10;;
58621;SDS011;44389;51.578;5.456;2022-07-24T05:08:39;71.65;;;50.50;;
58621;SDS011;44389;51.578;5.456;2022-07-24T05:11:05;73.03;;;48.90;;
58621;SDS011;44389;51.578;5.456;2022-07-24T05:13:30;84.63;;;51.72;;
58621;SDS011;44389;51.578;5.456;2022-07-24T05:15:55;90.18;;;54.67;;
58621;SDS011;44389;51.578;5.456;2022-07-24T05:18:21;83.30;;;55.08;;
58621;SDS011;44389;51.578;5.456;2022-07-24T05:20:46;90.88;;;55.00;;
58621;SDS011;44389;51.578;5.456;2022-07-24T05:23:11;84.78;;;56.15;;
58621;SDS011;44389;51.578;5.456;2022-07-24T05:25:36;85.85;;;56.60;;
58621;SDS011;44389;51.578;5.456;2022-07-24T05:28:02;92.80;;;58.10;;
58621;SDS011;44389;51.578;5.456;2022-07-24T05:30:27;87.07;;;55.92;;
58621;SDS011;44389;51.578;5.456;2022-07-24T05:32:53;82.65;;;53.95;;
58621;SDS011;44389;51.578;5.456;2022-07-24T05:35:18;85.53;;;56.53;;
58621;SDS011;44389;51.578;5.456;2022-07-24T05:37:43;95.07;;;57.67;;
58621;SDS011;44389;51.578;5.456;2022-07-24T05:40:09;83.85;;;56.10;;
58621;SDS011;44389;51.578;5.456;2022-07-24T05:42:35;85.03;;;55.38;;
58621;SDS011;44389;51.578;5.456;2022-07-24T05:45:00;94.70;;;57.10;;
58621;SDS011;44389;51.578;5.456;2022-07-24T05:47:25;79.88;;;53.55;;
58621;SDS011;44389;51.578;5.456;2022-07-24T05:49:51;91.50;;;55.60;;
58621;SDS011;44389;51.578;5.456;2022-07-24T05:52:16;94.60;;;56.63;;
58621;SDS011;44389;51.578;5.456;2022-07-24T05:54:41;86.45;;;55.78;;
58621;SDS011;44389;51.578;5.456;2022-07-24T05:57:06;90.00;;;55.95;;
58621;SDS011;44389;51.578;5.456;2022-07-24T05:59:32;80.03;;;54.72;;
58621;SDS011;44389;51.578;5.456;2022-07-24T06:01:57;84.68;;;51.83;;
58621;SDS011;44389;51.578;5.456;2022-07-24T06:04:24;91.18;;;52.78;;
58621;SDS011;44389;51.578;5.456;2022-07-24T06:06:50;82.38;;;51.47;;
58621;SDS011;44389;51.578;5.456;2022-07-24T06:09:15;82.72;;;50.67;;
58621;SDS011;44389;51.578;5.456;2022-07-24T06:11:40;74.20;;;48.50;;
58621;SDS011;44389;51.578;5.456;2022-07-24T06:14:06;81.22;;;47.70;;
58621;SDS011;44389;51.578;5.456;2022-07-24T06:16:31;73.13;;;48.67;;
58621;SDS011;44389;51.578;5.456;2022-07-24T06:18:56;69.30;;;44.67;;
58621;SDS011;44389;51.578;5.456;2022-07-24T06:21:22;67.60;;;42.72;;
58621;SDS011;44389;51.578;5.456;2022-07-24T06:23:47;65.18;;;42.95;;
58621;SDS011;44389;51.578;5.456;2022-07-24T06:26:13;62.42;;;39.90;;
58621;SDS011;44389;51.578;5.456;2022-07-24T06:28:38;63.10;;;41.33;;
58621;SDS011;44389;51.578;5.456;2022-07-24T06:31:03;58.10;;;37.42;;
58621;SDS011;44389;51.578;5.456;2022-07-24T06:33:28;63.05;;;38.17;;
58621;SDS011;44389;51.578;5.456;2022-07-24T06:35:54;54.65;;;37.45;;
58621;SDS011;44389;51.578;5.456;2022-07-24T06:38:19;56.33;;;34.63;;
58621;SDS011;44389;51.578;5.456;2022-07-24T06:40:44;53.13;;;33.67;;
58621;SDS011;44389;51.578;5.456;2022-07-24T06:43:10;48.58;;;32.33;;
58621;SDS011;44389;51.578;5.456;2022-07-24T06:45:35;46.53;;;30.02;;
58621;SDS011;44389;51.578;5.456;2022-07-24T06:48:01;50.13;;;32.38;;
58621;SDS011;44389;51.578;5.456;2022-07-24T06:50:27;48.05;;;30.15;;
58621;SDS011;44389;51.578;5.456;2022-07-24T06:52:52;45.25;;;29.92;;
58621;SDS011;44389;51.578;5.456;2022-07-24T06:55:18;44.38;;;27.80;;
58621;SDS011;44389;51.578;5.456;2022-07-24T06:57:43;46.50;;;29.35;;
58621;SDS011;44389;51.578;5.456;2022-07-24T07:00:09;40.97;;;27.52;;
58621;SDS011;44389;51.578;5.456;2022-07-24T07:02:35;40.07;;;26.83;;
58621;SDS011;44389;51.578;5.456;2022-07-24T07:05:01;42.42;;;25.02;;
58621;SDS011;44389;51.578;5.456;2022-07-24T07:07:27;35.83;;;22.90;;
58621;SDS011;44389;51.578;5.456;2022-07-24T07:09:52;35.30;;;22.83;;
58621;SDS011;44389;51.578;5.456;2022-07-24T07:12:17;32.20;;;20.50;;
58621;SDS011;44389;51.578;5.456;2022-07-24T07:14:43;27.75;;;19.30;;
58621;SDS011;44389;51.578;5.456;2022-07-24T07:17:08;32.10;;;19.05;;
58621;SDS011;44389;51.578;5.456;2022-07-24T07:19:33;28.00;;;17.63;;
58621;SDS011;44389;51.578;5.456;2022-07-24T07:21:59;25.92;;;16.45;;
58621;SDS011;44389;51.578;5.456;2022-07-24T07:24:24;24.52;;;16.75;;
58621;SDS011;44389;51.578;5.456;2022-07-24T07:26:49;23.08;;;15.45;;
58621;SDS011;44389;51.578;5.456;2022-07-24T07:29:15;25.48;;;14.80;;
58621;SDS011;44389;51.578;5.456;2022-07-24T07:31:40;21.00;;;12.68;;
58621;SDS011;44389;51.578;5.456;2022-07-24T07:34:05;20.90;;;12.05;;
58621;SDS011;44389;51.578;5.456;2022-07-24T07:36:30;17.20;;;11.80;;
58621;SDS011;44389;51.578;5.456;2022-07-24T07:38:56;19.27;;;12.63;;
58621;SDS011;44389;51.578;5.456;2022-07-24T07:41:22;18.20;;;11.43;;
58621;SDS011;44389;51.578;5.456;2022-07-24T07:43:48;16.48;;;10.50;;
58621;SDS011;44389;51.578;5.456;2022-07-24T07:46:14;14.13;;;10.15;;
58621;SDS011;44389;51.578;5.456;2022-07-24T07:48:39;14.05;;;9.38;;
58621;SDS011;44389;51.578;5.456;2022-07-24T07:51:05;16.23;;;9.02;;
58621;SDS011;44389;51.578;5.456;2022-07-24T07:53:30;14.55;;;8.13;;
58621;SDS011;44389;51.578;5.456;2022-07-24T07:55:56;11.32;;;7.95;;
58621;SDS011;44389;51.578;5.456;2022-07-24T07:58:21;12.48;;;7.00;;
58621;SDS011;44389;51.578;5.456;2022-07-24T08:00:51;12.50;;;7.07;;
58621;SDS011;44389;51.578;5.456;2022-07-24T08:03:16;9.60;;;6.20;;
58621;SDS011;44389;51.578;5.456;2022-07-24T08:05:42;13.30;;;6.50;;
58621;SDS011;44389;51.578;5.456;2022-07-24T08:08:07;10.43;;;5.90;;
58621;SDS011;44389;51.578;5.456;2022-07-24T08:10:32;8.25;;;5.60;;
58621;SDS011;44389;51.578;5.456;2022-07-24T08:12:58;8.38;;;5.38;;
58621;SDS011;44389;51.578;5.456;2022-07-24T08:15:23;7.25;;;5.10;;
58621;SDS011;44389;51.578;5.456;2022-07-24T08:17:52;10.75;;;5.10;;
58621;SDS011;44389;51.578;5.456;2022-07-24T08:20:18;7.18;;;4.60;;
58621;SDS011;44389;51.578;5.456;2022-07-24T08:22:45;8.45;;;5.00;;
58621;SDS011;44389;51.578;5.456;2022-07-24T08:25:10;8.25;;;4.47;;
58621;SDS011;44389;51.578;5.456;2022-07-24T08:27:36;7.78;;;4.75;;
58621;SDS011;44389;51.578;5.456;2022-07-24T08:30:02;8.63;;;4.60;;
58621;SDS011;44389;51.578;5.456;2022-07-24T08:32:28;6.72;;;4.22;;
58621;SDS011;44389;51.578;5.456;2022-07-24T08:34:54;5.28;;;3.70;;
58621;SDS011;44389;51.578;5.456;2022-07-24T08:37:19;6.47;;;4.35;;
58621;SDS011;44389;51.578;5.456;2022-07-24T08:39:45;8.45;;;4.45;;
58621;SDS011;44389;51.578;5.456;2022-07-24T08:42:11;6.20;;;3.65;;
58621;SDS011;44389;51.578;5.456;2022-07-24T08:44:37;8.38;;;4.75;;
58621;SDS011;44389;51.578;5.456;2022-07-24T08:47:03;6.85;;;4.55;;
58621;SDS011;44389;51.578;5.456;2022-07-24T08:49:31;8.48;;;5.00;;
58621;SDS011;44389;51.578;5.456;2022-07-24T08:51:59;9.05;;;5.07;;
58621;SDS011;44389;51.578;5.456;2022-07-24T08:54:25;11.13;;;4.70;;
58621;SDS011;44389;51.578;5.456;2022-07-24T08:56:50;11.43;;;4.60;;
58621;SDS011;44389;51.578;5.456;2022-07-24T08:59:19;5.22;;;3.78;;
58621;SDS011;44389;51.578;5.456;2022-07-24T09:01:49;8.32;;;4.53;;
58621;SDS011;44389;51.578;5.456;2022-07-24T09:04:30;5.95;;;4.00;;
58621;SDS011;44389;51.578;5.456;2022-07-24T09:07:03;6.53;;;4.15;;
58621;SDS011;44389;51.578;5.456;2022-07-24T09:09:30;8.23;;;4.43;;
58621;SDS011;44389;51.578;5.456;2022-07-24T09:12:02;7.10;;;4.15;;
58621;SDS011;44389;51.578;5.456;2022-07-24T09:14:39;6.80;;;4.10;;
58621;SDS011;44389;51.578;5.456;2022-07-24T09:19:51;7.30;;;4.80;;
58621;SDS011;44389;51.578;5.456;2022-07-24T09:22:34;7.80;;;5.03;;
58621;SDS011;44389;51.578;5.456;2022-07-24T09:25:18;7.70;;;4.93;;
58621;SDS011;44389;51.578;5.456;2022-07-24T09:27:57;7.00;;;4.60;;
